This is the latest recevied weather packets stored in our database for station/object DB5WY-13. If no packets are shown the sender has not sent any weather packets the latest 1 day(s).
| Time | Temp. | Humidity | Pressure | Rain* | Wind** | Luminosity | Snow |
|---|---|---|---|---|---|---|---|
| 1778075992 | 11.67° C | 85% | 1007.8 hPa | 0 mm | - | - | - |
| 1778075392 | 11.67° C | 84% | 1007.8 hPa | 0 mm | - | - | - |
| 1778074792 | 12.22° C | 84% | 1007.8 hPa | 0 mm | - | - | - |
| 1778074192 | 12.22° C | 83% | 1007.7 hPa | 0 mm | - | - | - |
| 1778073592 | 12.78° C | 82% | 1007.7 hPa | 0 mm | - | - | - |
| 1778072992 | 13.33° C | 81% | 1007.5 hPa | 0 mm | - | - | - |
| 1778072392 | 13.33° C | 80% | 1007.5 hPa | 0 mm | - | - | - |
| 1778071792 | 14.44° C | 77% | 1007.5 hPa | 0 mm | - | - | - |
| 1778071192 | 15° C | 75% | 1007.4 hPa | 0 mm | - | - | - |
| 1778070592 | 15.56° C | 75% | 1007.3 hPa | 0 mm | - | - | - |
| 1778069992 | 15.56° C | 76% | 1007.4 hPa | 0 mm | - | - | - |
| 1778068192 | 13.89° C | 77% | 1007.2 hPa | 0 mm | - | - | - |
| 1778065192 | 14.44° C | 77% | 1007.1 hPa | 0 mm | - | - | - |
| 1778062192 | 14.44° C | 76% | 1007.1 hPa | 0 mm | - | - | - |
| 1778061592 | 15° C | 75% | 1007.1 hPa | 0.51 mm | - | - | - |
| 1778056793 | 12.78° C | 85% | 1006.7 hPa | 0 mm | - | - | - |
| 1778056193 | 12.78° C | 86% | 1006.6 hPa | 0 mm | - | - | - |
| 1778055593 | 12.78° C | 88% | 1006.6 hPa | 0 mm | - | - | - |
| 1778054993 | 12.78° C | 89% | 1006.7 hPa | 0 mm | - | - | - |
| 1778054393 | 12.22° C | 90% | 1006.7 hPa | 0 mm | - | - | - |
| 1778053793 | 11.67° C | 91% | 1006.7 hPa | 0 mm | - | - | - |
| 1778053193 | 11.67° C | 92% | 1006.6 hPa | 0 mm | - | - | - |
| 1778052593 | 11.67° C | 92% | 1006.7 hPa | 0 mm | - | - | - |
| 1778051993 | 11.67° C | 93% | 1006.6 hPa | 0 mm | - | - | - |
| 1778051393 | 11.11° C | 94% | 1006.6 hPa | 0 mm | - | - | - |
* Rain latest hour (hover to see other rain measurements)
** Current wind speed in m/s (hover to see current wind gust speed)